sensor_id;sensor_type;location;lat;lon;timestamp;pressure;altitude;pressure_sealevel;temperature;humidity
18323;BME280;9287;49.456;11.064;2023-04-03T00:01:19;99004.25;;;3.99;87.67
18323;BME280;9287;49.456;11.064;2023-04-03T00:03:47;98998.56;;;4.01;88.14
18323;BME280;9287;49.456;11.064;2023-04-03T00:06:15;98995.13;;;3.95;88.86
18323;BME280;9287;49.456;11.064;2023-04-03T00:08:45;99000.03;;;3.88;88.16
18323;BME280;9287;49.456;11.064;2023-04-03T00:11:15;98996.72;;;3.96;88.89
18323;BME280;9287;49.456;11.064;2023-04-03T00:13:43;98992.69;;;3.94;90.79
18323;BME280;9287;49.456;11.064;2023-04-03T00:16:12;99000.03;;;3.88;90.67
18323;BME280;9287;49.456;11.064;2023-04-03T00:18:41;98996.38;;;4.03;91.33
18323;BME280;9287;49.456;11.064;2023-04-03T00:21:10;99004.31;;;3.94;90.48
18323;BME280;9287;49.456;11.064;2023-04-03T00:23:39;99002.16;;;3.91;90.19
18323;BME280;9287;49.456;11.064;2023-04-03T00:26:07;98996.56;;;3.82;90.59
18323;BME280;9287;49.456;11.064;2023-04-03T00:28:36;99002.81;;;3.78;89.67
18323;BME280;9287;49.456;11.064;2023-04-03T00:31:04;98995.53;;;3.78;87.99
18323;BME280;9287;49.456;11.064;2023-04-03T00:33:31;98993.00;;;3.87;88.45
18323;BME280;9287;49.456;11.064;2023-04-03T00:35:59;99004.91;;;3.86;89.01
18323;BME280;9287;49.456;11.064;2023-04-03T00:38:33;99006.56;;;3.82;89.02
18323;BME280;9287;49.456;11.064;2023-04-03T00:41:02;98998.81;;;3.70;89.54
18323;BME280;9287;49.456;11.064;2023-04-03T00:43:30;99007.19;;;3.74;90.75
18323;BME280;9287;49.456;11.064;2023-04-03T00:45:59;99006.56;;;3.82;90.72
18323;BME280;9287;49.456;11.064;2023-04-03T00:48:32;98992.44;;;3.90;91.41
18323;BME280;9287;49.456;11.064;2023-04-03T00:51:04;98999.06;;;3.74;90.63
18323;BME280;9287;49.456;11.064;2023-04-03T00:53:35;99006.66;;;3.72;91.42
18323;BME280;9287;49.456;11.064;2023-04-03T00:56:06;99009.38;;;3.67;91.92
18323;BME280;9287;49.456;11.064;2023-04-03T00:58:40;98999.09;;;3.69;91.63
18323;BME280;9287;49.456;11.064;2023-04-03T01:01:16;99001.25;;;3.72;92.49
18323;BME280;9287;49.456;11.064;2023-04-03T01:03:46;98992.06;;;3.73;91.82
18323;BME280;9287;49.456;11.064;2023-04-03T01:06:17;98993.66;;;3.74;90.44
18323;BME280;9287;49.456;11.064;2023-04-03T01:08:47;99004.22;;;3.70;90.39
18323;BME280;9287;49.456;11.064;2023-04-03T01:11:16;99001.81;;;3.69;90.04
18323;BME280;9287;49.456;11.064;2023-04-03T01:13:44;99008.25;;;3.73;89.89
18323;BME280;9287;49.456;11.064;2023-04-03T01:16:13;99004.47;;;3.74;89.87
18323;BME280;9287;49.456;11.064;2023-04-03T01:18:41;99005.13;;;3.61;88.73
18323;BME280;9287;49.456;11.064;2023-04-03T01:27:10;99001.34;;;3.62;88.08
18323;BME280;9287;49.456;11.064;2023-04-03T01:29:38;99000.28;;;3.58;88.80
18323;BME280;9287;49.456;11.064;2023-04-03T01:32:08;99007.31;;;3.54;88.06
18323;BME280;9287;49.456;11.064;2023-04-03T01:34:36;99003.78;;;3.58;88.50
18323;BME280;9287;49.456;11.064;2023-04-03T01:37:04;98998.69;;;3.52;88.60
18323;BME280;9287;49.456;11.064;2023-04-03T01:39:31;99007.88;;;3.50;88.63
18323;BME280;9287;49.456;11.064;2023-04-03T01:41:59;99003.56;;;3.49;87.50
18323;BME280;9287;49.456;11.064;2023-04-03T01:44:27;99008.50;;;3.42;88.09
18323;BME280;9287;49.456;11.064;2023-04-03T01:46:55;99007.53;;;3.28;88.78
18323;BME280;9287;49.456;11.064;2023-04-03T01:49:24;99002.03;;;3.38;89.89
18323;BME280;9287;49.456;11.064;2023-04-03T01:51:52;99010.16;;;3.33;90.66
18323;BME280;9287;49.456;11.064;2023-04-03T01:54:19;99009.41;;;3.28;91.07
18323;BME280;9287;49.456;11.064;2023-04-03T01:56:47;99003.22;;;3.22;91.83
18323;BME280;9287;49.456;11.064;2023-04-03T01:59:15;99008.63;;;3.22;91.79
18323;BME280;9287;49.456;11.064;2023-04-03T02:01:44;99005.09;;;3.27;92.18
18323;BME280;9287;49.456;11.064;2023-04-03T02:04:12;99000.00;;;3.20;91.32
18323;BME280;9287;49.456;11.064;2023-04-03T02:06:42;99008.66;;;3.12;92.09
18323;BME280;9287;49.456;11.064;2023-04-03T02:09:09;99003.22;;;3.22;92.90
18323;BME280;9287;49.456;11.064;2023-04-03T02:11:37;99002.22;;;3.08;92.31
18323;BME280;9287;49.456;11.064;2023-04-03T02:14:05;99000.94;;;2.95;93.70
18323;BME280;9287;49.456;11.064;2023-04-03T02:16:33;99007.66;;;2.98;94.18
18323;BME280;9287;49.456;11.064;2023-04-03T02:19:01;99011.44;;;2.97;95.10
18323;BME280;9287;49.456;11.064;2023-04-03T02:21:28;99000.44;;;2.93;94.47
18323;BME280;9287;49.456;11.064;2023-04-03T02:24:00;99010.91;;;2.95;95.61
18323;BME280;9287;49.456;11.064;2023-04-03T02:26:28;99014.75;;;2.78;96.66
18323;BME280;9287;49.456;11.064;2023-04-03T02:28:55;99010.97;;;2.90;96.89
18323;BME280;9287;49.456;11.064;2023-04-03T02:31:23;99005.56;;;2.90;97.68
18323;BME280;9287;49.456;11.064;2023-04-03T02:33:51;99004.50;;;2.80;97.91
18323;BME280;9287;49.456;11.064;2023-04-03T02:36:18;99012.59;;;2.80;98.12
18323;BME280;9287;49.456;11.064;2023-04-03T02:38:46;99010.50;;;2.72;98.61
18323;BME280;9287;49.456;11.064;2023-04-03T02:41:16;99003.47;;;2.76;99.46
18323;BME280;9287;49.456;11.064;2023-04-03T02:43:43;99010.50;;;2.67;100.00
18323;BME280;9287;49.456;11.064;2023-04-03T02:46:11;99001.34;;;2.68;100.00
18323;BME280;9287;49.456;11.064;2023-04-03T02:48:41;99003.56;;;2.51;100.00
18323;BME280;9287;49.456;11.064;2023-04-03T02:51:09;98997.06;;;2.57;100.00
18323;BME280;9287;49.456;11.064;2023-04-03T02:53:36;99004.63;;;2.55;100.00
18323;BME280;9287;49.456;11.064;2023-04-03T02:56:04;99005.16;;;2.52;100.00
18323;BME280;9287;49.456;11.064;2023-04-03T02:58:33;99006.25;;;2.46;100.00
18323;BME280;9287;49.456;11.064;2023-04-03T03:01:02;99011.09;;;2.49;100.00
18323;BME280;9287;49.456;11.064;2023-04-03T03:03:29;99003.59;;;2.41;100.00
18323;BME280;9287;49.456;11.064;2023-04-03T03:06:01;99007.88;;;2.52;100.00
18323;BME280;9287;49.456;11.064;2023-04-03T03:08:29;99005.16;;;2.52;100.00
18323;BME280;9287;49.456;11.064;2023-04-03T03:10:57;99000.59;;;2.48;100.00
18323;BME280;9287;49.456;11.064;2023-04-03T03:13:26;99007.38;;;2.40;100.00
18323;BME280;9287;49.456;11.064;2023-04-03T03:15:55;99002.53;;;2.42;100.00
18323;BME280;9287;49.456;11.064;2023-04-03T03:18:23;99000.84;;;2.56;100.00
18323;BME280;9287;49.456;11.064;2023-04-03T03:20:51;99005.22;;;2.42;100.00
18323;BME280;9287;49.456;11.064;2023-04-03T03:23:19;99010.03;;;2.45;100.00
18323;BME280;9287;49.456;11.064;2023-04-03T03:25:47;99011.09;;;2.49;100.00
18323;BME280;9287;49.456;11.064;2023-04-03T03:28:15;99002.22;;;2.43;100.00
18323;BME280;9287;49.456;11.064;2023-04-03T03:30:42;98997.34;;;2.51;100.00
18323;BME280;9287;49.456;11.064;2023-04-03T03:33:11;99000.91;;;2.41;100.00
18323;BME280;9287;49.456;11.064;2023-04-03T03:35:39;99003.84;;;2.44;100.00
18323;BME280;9287;49.456;11.064;2023-04-03T03:38:08;99004.41;;;2.41;100.00
18323;BME280;9287;49.456;11.064;2023-04-03T03:40:36;98999.56;;;2.38;100.00
18323;BME280;9287;49.456;11.064;2023-04-03T03:43:03;99003.56;;;2.51;100.00
18323;BME280;9287;49.456;11.064;2023-04-03T03:45:31;99007.34;;;2.50;100.00
18323;BME280;9287;49.456;11.064;2023-04-03T03:47:59;99008.19;;;2.40;100.00
18323;BME280;9287;49.456;11.064;2023-04-03T03:50:28;99008.47;;;2.29;100.00
18323;BME280;9287;49.456;11.064;2023-04-03T03:52:56;99017.91;;;2.26;100.00
18323;BME280;9287;49.456;11.064;2023-04-03T03:55:23;99002.00;;;2.30;100.00
18323;BME280;9287;49.456;11.064;2023-04-03T03:57:51;98997.41;;;2.40;100.00
18323;BME280;9287;49.456;11.064;2023-04-03T04:00:19;99000.38;;;2.39;100.00
18323;BME280;9287;49.456;11.064;2023-04-03T04:02:47;98999.25;;;2.50;100.00
18323;BME280;9287;49.456;11.064;2023-04-03T04:05:16;99005.72;;;2.54;100.00
18323;BME280;9287;49.456;11.064;2023-04-03T04:07:45;99010.56;;;2.57;100.00
18323;BME280;9287;49.456;11.064;2023-04-03T04:10:13;99004.09;;;2.43;100.00
18323;BME280;9287;49.456;11.064;2023-04-03T04:12:41;99001.72;;;2.41;100.00
18323;BME280;9287;49.456;11.064;2023-04-03T04:15:09;99003.03;;;2.44;100.00
18323;BME280;9287;49.456;11.064;2023-04-03T04:17:37;99003.03;;;2.44;100.00
18323;BME280;9287;49.456;11.064;2023-04-03T04:20:05;99000.59;;;2.42;100.00
18323;BME280;9287;49.456;11.064;2023-04-03T04:22:33;99011.91;;;2.50;100.00
18323;BME280;9287;49.456;11.064;2023-04-03T04:25:03;99007.91;;;2.42;100.00
18323;BME280;9287;49.456;11.064;2023-04-03T04:27:31;99015.97;;;2.52;100.00
18323;BME280;9287;49.456;11.064;2023-04-03T04:29:59;99008.09;;;2.61;100.00
18323;BME280;9287;49.456;11.064;2023-04-03T04:32:27;99008.91;;;2.61;100.00
18323;BME280;9287;49.456;11.064;2023-04-03T04:34:55;99002.97;;;2.64;100.00
18323;BME280;9287;49.456;11.064;2023-04-03T04:37:23;99006.78;;;2.48;100.00
18323;BME280;9287;49.456;11.064;2023-04-03T04:39:50;99012.75;;;2.40;100.00
18323;BME280;9287;49.456;11.064;2023-04-03T04:42:19;99008.41;;;2.54;100.00
18323;BME280;9287;49.456;11.064;2023-04-03T04:44:47;99017.63;;;2.38;100.00
18323;BME280;9287;49.456;11.064;2023-04-03T04:47:15;99013.81;;;2.44;100.00
18323;BME280;9287;49.456;11.064;2023-04-03T04:49:43;99022.47;;;2.36;100.00
18323;BME280;9287;49.456;11.064;2023-04-03T04:52:11;99017.63;;;2.28;100.00
18323;BME280;9287;49.456;11.064;2023-04-03T04:54:38;99025.16;;;2.31;100.00
18323;BME280;9287;49.456;11.064;2023-04-03T04:57:06;99026.28;;;2.15;100.00
18323;BME280;9287;49.456;11.064;2023-04-03T04:59:35;99030.06;;;2.14;100.00
18323;BME280;9287;49.456;11.064;2023-04-03T05:02:03;99032.75;;;2.14;100.00
18323;BME280;9287;49.456;11.064;2023-04-03T05:04:31;99027.63;;;2.12;100.00
18323;BME280;9287;49.456;11.064;2023-04-03T05:06:59;99033.81;;;2.23;100.00
18323;BME280;9287;49.456;11.064;2023-04-03T05:09:27;99039.22;;;2.13;100.00
18323;BME280;9287;49.456;11.064;2023-04-03T05:11:55;99040.25;;;2.27;100.00
18323;BME280;9287;49.456;11.064;2023-04-03T05:14:23;99043.00;;;2.22;100.00
18323;BME280;9287;49.456;11.064;2023-04-03T05:16:52;99035.44;;;2.14;100.00
18323;BME280;9287;49.456;11.064;2023-04-03T05:19:21;99038.09;;;2.29;100.00
18323;BME280;9287;49.456;11.064;2023-04-03T05:21:48;99035.94;;;2.31;100.00
18323;BME280;9287;49.456;11.064;2023-04-03T05:24:16;99040.25;;;2.27;100.00
18323;BME280;9287;49.456;11.064;2023-04-03T05:26:44;99041.34;;;2.31;100.00
18323;BME280;9287;49.456;11.064;2023-04-03T05:29:12;99040.84;;;2.24;100.00
18323;BME280;9287;49.456;11.064;2023-04-03T05:31:39;99035.97;;;2.21;100.00
18323;BME280;9287;49.456;11.064;2023-04-03T05:34:09;99051.59;;;2.14;100.00
18323;BME280;9287;49.456;11.064;2023-04-03T05:36:36;99055.38;;;2.23;100.00
18323;BME280;9287;49.456;11.064;2023-04-03T05:39:04;99043.78;;;2.27;100.00
18323;BME280;9287;49.456;11.064;2023-04-03T05:41:32;99043.47;;;2.44;100.00
18323;BME280;9287;49.456;11.064;2023-04-03T05:44:00;99040.84;;;2.19;100.00
18323;BME280;9287;49.456;11.064;2023-04-03T05:46:28;99048.09;;;2.38;100.00
18323;BME280;9287;49.456;11.064;2023-04-03T05:48:56;99048.34;;;2.37;100.00
18323;BME280;9287;49.456;11.064;2023-04-03T05:51:28;99056.44;;;2.37;100.00
18323;BME280;9287;49.456;11.064;2023-04-03T05:54:03;99062.34;;;2.44;100.00
18323;BME280;9287;49.456;11.064;2023-04-03T05:56:33;99065.59;;;2.36;100.00
18323;BME280;9287;49.456;11.064;2023-04-03T05:59:01;99064.25;;;2.38;100.00
18323;BME280;9287;49.456;11.064;2023-04-03T06:01:28;99060.72;;;2.53;100.00
18323;BME280;9287;49.456;11.064;2023-04-03T06:03:56;99073.66;;;2.51;100.00
18323;BME280;9287;49.456;11.064;2023-04-03T06:06:43;99065.56;;;2.56;100.00
18323;BME280;9287;49.456;11.064;2023-04-03T06:09:10;99066.09;;;2.58;100.00
18323;BME280;9287;49.456;11.064;2023-04-03T06:11:38;99071.47;;;2.63;100.00
18323;BME280;9287;49.456;11.064;2023-04-03T06:14:06;99073.66;;;2.51;100.00
18323;BME280;9287;49.456;11.064;2023-04-03T06:16:34;99074.72;;;2.55;100.00
18323;BME280;9287;49.456;11.064;2023-04-03T06:19:05;99081.44;;;2.63;100.00
18323;BME280;9287;49.456;11.064;2023-04-03T06:21:34;99069.28;;;2.75;100.00
18323;BME280;9287;49.456;11.064;2023-04-03T06:24:03;99074.09;;;2.89;100.00
18323;BME280;9287;49.456;11.064;2023-04-03T06:26:33;99070.84;;;2.87;100.00
18323;BME280;9287;49.456;11.064;2023-04-03T06:29:01;99075.19;;;2.88;100.00
18323;BME280;9287;49.456;11.064;2023-04-03T06:31:31;99079.78;;;2.82;100.00
18323;BME280;9287;49.456;11.064;2023-04-03T06:33:59;99084.34;;;2.82;100.00
18323;BME280;9287;49.456;11.064;2023-04-03T06:36:27;99090.28;;;2.89;100.00
18323;BME280;9287;49.456;11.064;2023-04-03T06:38:57;99096.25;;;2.75;100.00
18323;BME280;9287;49.456;11.064;2023-04-03T06:41:25;99080.56;;;2.93;100.00
18323;BME280;9287;49.456;11.064;2023-04-03T06:43:54;99089.63;;;3.12;100.00
18323;BME280;9287;49.456;11.064;2023-04-03T06:46:23;99095.63;;;2.99;100.00
18323;BME280;9287;49.456;11.064;2023-04-03T06:48:53;99093.41;;;3.16;100.00
18323;BME280;9287;49.456;11.064;2023-04-03T06:51:24;99100.94;;;3.19;100.00
18323;BME280;9287;49.456;11.064;2023-04-03T06:53:54;99088.88;;;2.96;100.00
18323;BME280;9287;49.456;11.064;2023-04-03T06:56:26;99098.53;;;3.18;100.00
18323;BME280;9287;49.456;11.064;2023-04-03T06:58:55;99093.72;;;3.04;100.00
18323;BME280;9287;49.456;11.064;2023-04-03T07:01:25;99096.91;;;3.17;100.00
18323;BME280;9287;49.456;11.064;2023-04-03T07:03:55;99107.97;;;3.20;100.00
18323;BME280;9287;49.456;11.064;2023-04-03T07:06:23;99103.31;;;3.31;100.00
18323;BME280;9287;49.456;11.064;2023-04-03T07:08:53;99118.41;;;3.37;100.00
18323;BME280;9287;49.456;11.064;2023-04-03T07:11:22;99119.16;;;3.47;100.00
18323;BME280;9287;49.456;11.064;2023-04-03T07:13:51;99123.00;;;3.36;100.00
18323;BME280;9287;49.456;11.064;2023-04-03T07:16:23;99128.91;;;3.43;100.00
18323;BME280;9287;49.456;11.064;2023-04-03T07:18:51;99128.94;;;3.38;100.00
18323;BME280;9287;49.456;11.064;2023-04-03T07:21:19;99129.38;;;3.56;100.00
18323;BME280;9287;49.456;11.064;2023-04-03T07:23:47;99139.09;;;3.57;100.00
18323;BME280;9287;49.456;11.064;2023-04-03T07:26:19;99134.06;;;3.40;100.00
18323;BME280;9287;49.456;11.064;2023-04-03T07:28:49;99147.53;;;3.45;100.00
18323;BME280;9287;49.456;11.064;2023-04-03T07:31:18;99151.06;;;3.40;100.00
18323;BME280;9287;49.456;11.064;2023-04-03T07:33:47;99141.53;;;3.58;100.00
18323;BME280;9287;49.456;11.064;2023-04-03T07:36:16;99148.34;;;3.45;100.00
18323;BME280;9287;49.456;11.064;2023-04-03T07:38:44;99142.34;;;3.59;100.00
18323;BME280;9287;49.456;11.064;2023-04-03T07:41:14;99144.34;;;3.82;100.00
18323;BME280;9287;49.456;11.064;2023-04-03T07:43:44;99148.66;;;3.83;99.15
18323;BME280;9287;49.456;11.064;2023-04-03T07:46:12;99147.72;;;4.03;96.80
18323;BME280;9287;49.456;11.064;2023-04-03T07:48:42;99147.44;;;4.09;95.81
18323;BME280;9287;49.456;11.064;2023-04-03T07:51:10;99151.94;;;4.19;95.73
18323;BME280;9287;49.456;11.064;2023-04-03T07:53:38;99149.50;;;4.17;95.17
18323;BME280;9287;49.456;11.064;2023-04-03T07:56:06;99156.47;;;4.29;93.73
18323;BME280;9287;49.456;11.064;2023-04-03T07:58:34;99139.13;;;4.64;91.37
18323;BME280;9287;49.456;11.064;2023-04-03T08:01:03;99153.53;;;4.54;88.66
18323;BME280;9287;49.456;11.064;2023-04-03T08:03:31;99145.06;;;4.66;88.80
18323;BME280;9287;49.456;11.064;2023-04-03T08:06:03;99151.56;;;4.65;88.47
18323;BME280;9287;49.456;11.064;2023-04-03T08:08:37;99145.75;;;4.76;86.32
18323;BME280;9287;49.456;11.064;2023-04-03T08:11:04;99148.53;;;4.03;88.70
18323;BME280;9287;49.456;11.064;2023-04-03T08:13:34;99150.97;;;4.05;90.24
18323;BME280;9287;49.456;11.064;2023-04-03T08:16:09;99155.09;;;4.31;88.43
18323;BME280;9287;49.456;11.064;2023-04-03T08:18:38;99146.81;;;4.80;85.34
18323;BME280;9287;49.456;11.064;2023-04-03T08:21:09;99156.25;;;5.07;82.16
18323;BME280;9287;49.456;11.064;2023-04-03T08:23:37;99154.19;;;5.22;78.61
18323;BME280;9287;49.456;11.064;2023-04-03T08:26:07;99153.84;;;5.53;75.67
18323;BME280;9287;49.456;11.064;2023-04-03T08:28:35;99147.00;;;5.55;74.75
18323;BME280;9287;49.456;11.064;2023-04-03T08:31:03;99166.50;;;6.00;73.43
18323;BME280;9287;49.456;11.064;2023-04-03T08:33:34;99159.09;;;7.17;62.89
18323;BME280;9287;49.456;11.064;2023-04-03T08:36:04;99163.44;;;8.53;58.27
18323;BME280;9287;49.456;11.064;2023-04-03T08:38:34;99172.38;;;10.72;49.48
18323;BME280;9287;49.456;11.064;2023-04-03T08:41:07;99161.44;;;9.95;48.54
18323;BME280;9287;49.456;11.064;2023-04-03T08:43:49;99166.97;;;9.47;50.34
18323;BME280;9287;49.456;11.064;2023-04-03T08:46:22;99163.22;;;10.68;48.70
18323;BME280;9287;49.456;11.064;2023-04-03T08:48:53;99166.56;;;12.38;44.63
18323;BME280;9287;49.456;11.064;2023-04-03T08:51:23;99172.44;;;11.10;45.37
18323;BME280;9287;49.456;11.064;2023-04-03T08:53:56;99165.28;;;11.27;43.06
18323;BME280;9287;49.456;11.064;2023-04-03T08:56:26;99165.59;;;11.63;40.88
18323;BME280;9287;49.456;11.064;2023-04-03T08:58:56;99162.44;;;11.91;39.80
18323;BME280;9287;49.456;11.064;2023-04-03T09:01:27;99164.78;;;9.74;42.40
18323;BME280;9287;49.456;11.064;2023-04-03T09:03:57;99165.53;;;9.10;43.44
18323;BME280;9287;49.456;11.064;2023-04-03T09:06:27;99167.47;;;8.56;45.41
18323;BME280;9287;49.456;11.064;2023-04-03T09:09:09;99173.53;;;7.81;47.64
18323;BME280;9287;49.456;11.064;2023-04-03T09:11:47;99170.25;;;8.06;49.02
18323;BME280;9287;49.456;11.064;2023-04-03T09:14:23;99176.63;;;8.60;47.46
18323;BME280;9287;49.456;11.064;2023-04-03T09:16:55;99187.19;;;8.03;49.15
18323;BME280;9287;49.456;11.064;2023-04-03T09:19:30;99173.84;;;7.11;50.89
18323;BME280;9287;49.456;11.064;2023-04-03T09:22:11;99158.75;;;6.45;53.06
18323;BME280;9287;49.456;11.064;2023-04-03T09:24:43;99186.94;;;6.11;54.27
18323;BME280;9287;49.456;11.064;2023-04-03T09:27:12;99187.34;;;5.81;54.98
18323;BME280;9287;49.456;11.064;2023-04-03T09:29:42;99180.75;;;5.87;55.04
18323;BME280;9287;49.456;11.064;2023-04-03T09:32:19;99168.00;;;5.69;55.63
18323;BME280;9287;49.456;11.064;2023-04-03T09:34:49;99173.41;;;5.69;54.94
18323;BME280;9287;49.456;11.064;2023-04-03T09:37:34;99175.47;;;5.34;55.35
18323;BME280;9287;49.456;11.064;2023-04-03T09:40:28;99174.88;;;5.80;55.36
18323;BME280;9287;49.456;11.064;2023-04-03T09:42:58;99174.59;;;5.15;55.51
18323;BME280;9287;49.456;11.064;2023-04-03T09:45:29;99179.09;;;5.48;54.47
18323;BME280;9287;49.456;11.064;2023-04-03T09:48:06;99169.63;;;6.07;53.02
18323;BME280;9287;49.456;11.064;2023-04-03T09:50:54;99172.78;;;6.14;52.47
18323;BME280;9287;49.456;11.064;2023-04-03T09:53:33;99174.16;;;6.95;49.97
18323;BME280;9287;49.456;11.064;2023-04-03T09:56:05;99165.16;;;6.81;50.04
18323;BME280;9287;49.456;11.064;2023-04-03T09:58:47;99167.66;;;6.64;49.44
18323;BME280;9287;49.456;11.064;2023-04-03T10:01:27;99161.69;;;9.11;46.43
18323;BME280;9287;49.456;11.064;2023-04-03T10:04:08;99167.44;;;10.49;41.82
18323;BME280;9287;49.456;11.064;2023-04-03T10:06:38;99170.28;;;8.95;43.42
18323;BME280;9287;49.456;11.064;2023-04-03T10:09:19;99173.34;;;7.63;45.63
18323;BME280;9287;49.456;11.064;2023-04-03T10:12:00;99163.72;;;7.30;46.69
18323;BME280;9287;49.456;11.064;2023-04-03T10:14:29;99159.69;;;7.00;47.88
18323;BME280;9287;49.456;11.064;2023-04-03T10:17:03;99150.81;;;6.16;48.17
18323;BME280;9287;49.456;11.064;2023-04-03T10:19:36;99165.63;;;6.05;49.20
18323;BME280;9287;49.456;11.064;2023-04-03T10:22:15;99161.16;;;5.52;49.52
18323;BME280;9287;49.456;11.064;2023-04-03T10:24:52;99156.75;;;5.56;50.15
18323;BME280;9287;49.456;11.064;2023-04-03T10:27:32;99155.69;;;6.33;49.77
18323;BME280;9287;49.456;11.064;2023-04-03T10:30:19;99150.22;;;6.97;47.45
18323;BME280;9287;49.456;11.064;2023-04-03T10:32:57;99154.22;;;6.73;47.99
18323;BME280;9287;49.456;11.064;2023-04-03T10:35:37;99150.84;;;6.29;47.59
18323;BME280;9287;49.456;11.064;2023-04-03T10:38:14;99149.38;;;6.37;48.07
18323;BME280;9287;49.456;11.064;2023-04-03T10:40:49;99148.47;;;6.42;48.26
18323;BME280;9287;49.456;11.064;2023-04-03T10:43:29;99148.53;;;6.04;48.78
18323;BME280;9287;49.456;11.064;2023-04-03T10:46:03;99142.81;;;5.87;50.61
18323;BME280;9287;49.456;11.064;2023-04-03T10:48:52;99136.16;;;5.98;49.63
18323;BME280;9287;49.456;11.064;2023-04-03T10:51:31;99136.09;;;6.03;46.49
18323;BME280;9287;49.456;11.064;2023-04-03T10:54:07;99135.97;;;5.52;47.18
18323;BME280;9287;49.456;11.064;2023-04-03T10:56:39;99137.44;;;5.63;47.16
18323;BME280;9287;49.456;11.064;2023-04-03T10:59:18;99132.28;;;6.69;45.97
18323;BME280;9287;49.456;11.064;2023-04-03T11:01:51;99130.72;;;7.23;43.95
18323;BME280;9287;49.456;11.064;2023-04-03T11:04:23;99120.47;;;6.92;45.85
18323;BME280;9287;49.456;11.064;2023-04-03T11:06:54;99117.44;;;6.15;46.72
18323;BME280;9287;49.456;11.064;2023-04-03T11:09:28;99120.13;;;6.34;46.50
18323;BME280;9287;49.456;11.064;2023-04-03T11:12:04;99110.78;;;6.86;46.00
18323;BME280;9287;49.456;11.064;2023-04-03T11:14:36;99114.53;;;6.90;45.43
18323;BME280;9287;49.456;11.064;2023-04-03T11:17:11;99112.72;;;7.27;44.50
18323;BME280;9287;49.456;11.064;2023-04-03T11:19:46;99093.44;;;9.16;40.89
18323;BME280;9287;49.456;11.064;2023-04-03T11:22:21;99098.06;;;9.98;38.21
18323;BME280;9287;49.456;11.064;2023-04-03T11:24:57;99105.91;;;9.08;39.56
18323;BME280;9287;49.456;11.064;2023-04-03T11:27:27;99100.78;;;8.45;40.10
18323;BME280;9287;49.456;11.064;2023-04-03T11:30:06;99107.75;;;7.56;40.93
18323;BME280;9287;49.456;11.064;2023-04-03T11:33:05;99098.63;;;6.97;42.05
18323;BME280;9287;49.456;11.064;2023-04-03T11:35:43;99101.72;;;6.77;42.16
18323;BME280;9287;49.456;11.064;2023-04-03T11:38:18;99106.81;;;7.97;41.35
18323;BME280;9287;49.456;11.064;2023-04-03T11:40:49;99092.47;;;8.05;41.79
18323;BME280;9287;49.456;11.064;2023-04-03T11:43:22;99097.66;;;9.39;38.70
18323;BME280;9287;49.456;11.064;2023-04-03T11:45:56;99095.81;;;10.17;35.16
18323;BME280;9287;49.456;11.064;2023-04-03T11:48:47;99090.34;;;10.34;36.90
18323;BME280;9287;49.456;11.064;2023-04-03T12:14:14;99065.84;;;10.64;37.19
18323;BME280;9287;49.456;11.064;2023-04-03T12:16:44;99068.03;;;11.17;35.98
18323;BME280;9287;49.456;11.064;2023-04-03T12:19:33;99054.22;;;11.43;36.99
18323;BME280;9287;49.456;11.064;2023-04-03T12:22:14;99056.41;;;10.99;36.61
18323;BME280;9287;49.456;11.064;2023-04-03T12:24:45;99059.53;;;9.91;38.90
18323;BME280;9287;49.456;11.064;2023-04-03T12:27:29;99058.25;;;9.62;39.64
18323;BME280;9287;49.456;11.064;2023-04-03T12:30:07;99055.34;;;10.36;39.07
18323;BME280;9287;49.456;11.064;2023-04-03T12:33:03;99055.56;;;11.07;37.71
18323;BME280;9287;49.456;11.064;2023-04-03T12:35:44;99050.22;;;11.61;35.69
18323;BME280;9287;49.456;11.064;2023-04-03T12:41:18;99039.69;;;12.59;34.25
18323;BME280;9287;49.456;11.064;2023-04-03T12:43:58;99043.84;;;11.57;35.53
18323;BME280;9287;49.456;11.064;2023-04-03T12:46:36;99041.91;;;11.28;35.59
18323;BME280;9287;49.456;11.064;2023-04-03T12:49:18;99035.41;;;9.24;39.27
18323;BME280;9287;49.456;11.064;2023-04-03T12:51:50;99038.53;;;8.91;39.17
18323;BME280;9287;49.456;11.064;2023-04-03T12:54:19;99032.94;;;8.26;40.05
18323;BME280;9287;49.456;11.064;2023-04-03T12:56:49;99033.75;;;8.04;40.22
18323;BME280;9287;49.456;11.064;2023-04-03T12:59:20;99032.13;;;8.25;39.74
18323;BME280;9287;49.456;11.064;2023-04-03T13:01:57;99035.47;;;8.00;40.36
18323;BME280;9287;49.456;11.064;2023-04-03T13:04:26;99022.97;;;8.44;39.38
18323;BME280;9287;49.456;11.064;2023-04-03T13:06:54;99026.78;;;9.30;39.84
18323;BME280;9287;49.456;11.064;2023-04-03T13:09:23;99027.44;;;9.70;38.03
18323;BME280;9287;49.456;11.064;2023-04-03T13:11:56;99024.22;;;10.03;37.57
18323;BME280;9287;49.456;11.064;2023-04-03T13:14:27;99021.81;;;10.01;38.34
18323;BME280;9287;49.456;11.064;2023-04-03T13:17:02;99024.34;;;10.15;37.92
18323;BME280;9287;49.456;11.064;2023-04-03T13:19:30;99025.34;;;9.41;40.26
18323;BME280;9287;49.456;11.064;2023-04-03T13:22:01;99020.53;;;9.47;40.74
18323;BME280;9287;49.456;11.064;2023-04-03T13:24:32;99020.53;;;8.73;41.64
18323;BME280;9287;49.456;11.064;2023-04-03T13:27:02;99025.69;;;8.44;41.19
18323;BME280;9287;49.456;11.064;2023-04-03T13:29:34;99009.63;;;8.11;42.20
18323;BME280;9287;49.456;11.064;2023-04-03T13:32:04;99015.81;;;8.56;41.00
18323;BME280;9287;49.456;11.064;2023-04-03T13:34:37;99005.44;;;9.15;41.01
18323;BME280;9287;49.456;11.064;2023-04-03T13:37:05;98997.28;;;9.41;40.47
18323;BME280;9287;49.456;11.064;2023-04-03T13:39:35;98989.72;;;9.98;39.67
18323;BME280;9287;49.456;11.064;2023-04-03T13:42:15;99014.94;;;9.52;40.28
18323;BME280;9287;49.456;11.064;2023-04-03T13:44:46;99004.88;;;8.87;40.74
18323;BME280;9287;49.456;11.064;2023-04-03T13:47:18;99000.91;;;8.23;41.58
18323;BME280;9287;49.456;11.064;2023-04-03T13:49:59;99014.03;;;7.76;42.71
18323;BME280;9287;49.456;11.064;2023-04-03T13:52:30;99013.78;;;7.86;42.65
18323;BME280;9287;49.456;11.064;2023-04-03T13:55:01;99007.84;;;7.84;42.73
18323;BME280;9287;49.456;11.064;2023-04-03T13:57:33;99007.75;;;8.20;43.16